Laudanum — FAC9196 — position and weather

sailwx.info

Track history (hours):
 
Tides and Currents Weather Stations Pressure Air Temp Water Temp Dewpoint Dewpoint Depression Visibility Wind Speed Wind Dir Waves Ship Positions

Laudanum

Last reported at 2017-Aug-27 17:15 UTC. Time now 2017-Sep-22 17:21 UTC.
Position N 47°35' W 003°02'.
Warning: this ship's position is 26 days out of date.

Type: Sailing vessel. MMSI: 227360690.

Date/timePositionNaut miles runAvg speedWind from/ knotsBaromVisibWave heightAir tempDewpointWater temp
2017-Aug-27 17:15N 47°35' W 003°02'0 0.0
2017-Aug-27 17:00N 47°35' W 003°02'0 0.0
2017-Aug-27 16:30N 47°35' W 003°02'1 2.2
2017-Aug-27 16:00N 47°34' W 003°01'3 6.5
2017-Aug-27 15:30N 47°32' W 002°59'3 6.9
2017-Aug-27 15:00N 47°28' W 002°57'3 6.8
2017-Aug-27 14:30N 47°25' W 002°55'3 6.8
2017-Aug-27 14:00N 47°22' W 002°53'1 2.2
2017-Aug-27 13:25N 47°21' W 002°53'0 0.0
2017-Aug-27 12:58N 47°21' W 002°53'0 0.0
2017-Aug-27 12:25N 47°21' W 002°53'0 0.0
2017-Aug-27 11:58N 47°21' W 002°53'0 0.0
2017-Aug-27 11:28N 47°21' W 002°53'0 0.0
2017-Aug-27 10:58N 47°21' W 002°53'1 2.5
2017-Aug-27 10:30N 47°21' W 002°54'2 3.2
2017-Aug-27 09:58N 47°22' W 002°57'2 0.1
2017-Aug-26 18:45N 47°23' W 002°59'0 0.0
2017-Aug-26 18:21N 47°23' W 002°59'0 0.0
2017-Aug-26 18:00N 47°23' W 002°59'1 0.2
2017-Aug-26 14:54N 47°23' W 003°00'5 5.4
2017-Aug-26 14:00N 47°28' W 003°00'3 5.9
2017-Aug-26 13:30N 47°31' W 003°01'3 6.3
2017-Aug-26 13:00N 47°34' W 003°01'1 2.6
2017-Aug-26 12:30N 47°35' W 003°02'0 0.0
2017-Aug-26 11:57N 47°35' W 003°02'0 0.0
2017-Aug-26 11:30N 47°35' W 003°02'0 0.0
2017-Aug-26 11:00N 47°35' W 003°02'0 0.0
2017-Aug-26 10:31N 47°35' W 003°02'0 0.0
2017-Aug-26 10:00N 47°35' W 003°02'0 0.0
2017-Aug-26 09:30N 47°35' W 003°02'0 0.0
2017-Aug-26 09:00N 47°35' W 003°02'0 0.0
2017-Aug-26 08:30N 47°35' W 003°02'0 0.0
2017-Aug-26 08:00N 47°35' W 003°02'0 0.0
2017-Aug-26 07:30N 47°35' W 003°02'0 0.0
2017-Aug-26 07:00N 47°35' W 003°02'0 0.0
2017-Aug-26 06:30N 47°35' W 003°02'0 0.0
2017-Aug-26 06:00N 47°35' W 003°02'0 0.0
2017-Aug-26 05:30N 47°35' W 003°02'0 0.0
2017-Aug-26 05:00N 47°35' W 003°02'0 0.0
2017-Aug-26 04:30N 47°35' W 003°02'0 0.0
2017-Aug-26 04:00N 47°35' W 003°02'0 0.0
2017-Aug-26 03:30N 47°35' W 003°02'0 0.0
2017-Aug-26 03:00N 47°35' W 003°02'0 0.0
2017-Aug-26 02:30N 47°35' W 003°02'0 0.0
2017-Aug-26 02:00N 47°35' W 003°02'0 0.0
2017-Aug-26 01:30N 47°35' W 003°02'0 0.0
2017-Aug-26 01:00N 47°35' W 003°02'0 0.0
2017-Aug-26 00:30N 47°35' W 003°02'0 0.0
2017-Aug-26 00:00N 47°35' W 003°02'0 0.0
2017-Aug-25 23:30N 47°35' W 003°02'0 0.0
2017-Aug-25 23:00N 47°35' W 003°02'0 0.0
2017-Aug-25 22:30N 47°35' W 003°02'0 0.0
2017-Aug-25 22:00N 47°35' W 003°02'0 0.0
2017-Aug-25 21:30N 47°35' W 003°02'0 0.0
2017-Aug-25 21:00N 47°35' W 003°02'  
2017-Aug-18 15:20N 47°35' W 003°02'0 0.0
2017-Aug-18 14:59N 47°35' W 003°02'0 0.0
2017-Aug-18 13:56N 47°35' W 003°02'0 0.0
2017-Aug-18 13:29N 47°35' W 003°02'0 0.0
2017-Aug-18 12:53N 47°35' W 003°02'0 0.0
2017-Aug-18 12:29N 47°35' W 003°02'0 0.0
2017-Aug-18 11:59N 47°35' W 003°02'0 0.0
2017-Aug-18 11:29N 47°35' W 003°02'0 0.0
2017-Aug-18 10:56N 47°35' W 003°02'0 0.0
2017-Aug-18 10:29N 47°35' W 003°02'0 0.0
2017-Aug-18 09:56N 47°35' W 003°02'0 0.0
2017-Aug-18 09:29N 47°35' W 003°02'0 0.0
2017-Aug-18 08:56N 47°35' W 003°02'0 0.0
2017-Aug-18 08:26N 47°35' W 003°02'0 0.0
2017-Aug-18 07:59N 47°35' W 003°02'0 0.0
2017-Aug-18 07:23N 47°35' W 003°02'0 0.0
2017-Aug-18 06:59N 47°35' W 003°02'0 0.0
2017-Aug-18 06:29N 47°35' W 003°02'0 0.0
2017-Aug-18 05:59N 47°35' W 003°02'0 0.0
2017-Aug-18 05:29N 47°35' W 003°02'0 0.0
2017-Aug-18 04:59N 47°35' W 003°02'0 0.0
2017-Aug-18 04:29N 47°35' W 003°02'0 0.0
2017-Aug-18 03:59N 47°35' W 003°02'0 0.0
2017-Aug-18 03:29N 47°35' W 003°02'0 0.0
2017-Aug-18 02:59N 47°35' W 003°02'0 0.0
2017-Aug-18 02:29N 47°35' W 003°02'0 0.0
2017-Aug-18 01:59N 47°35' W 003°02'0 0.0
2017-Aug-18 01:29N 47°35' W 003°02'0 0.0
2017-Aug-18 00:59N 47°35' W 003°02'0 0.0
2017-Aug-18 00:29N 47°35' W 003°02'0 0.0
2017-Aug-17 23:59N 47°35' W 003°02'0 0.0
2017-Aug-17 23:29N 47°35' W 003°02'0 0.0
2017-Aug-17 22:59N 47°35' W 003°02'0 0.0
2017-Aug-17 22:29N 47°35' W 003°02'0 0.0
2017-Aug-17 21:56N 47°35' W 003°02'0 0.0
2017-Aug-17 21:29N 47°35' W 003°02'0 0.0
2017-Aug-17 20:59N 47°35' W 003°02'0 0.0
2017-Aug-17 20:29N 47°35' W 003°02'0 0.0
2017-Aug-17 19:59N 47°35' W 003°02'0 0.0
2017-Aug-17 19:29N 47°35' W 003°02'0 0.0
2017-Aug-17 18:59N 47°35' W 003°02'0 0.0
2017-Aug-17 18:29N 47°35' W 003°02'0 0.0
2017-Aug-17 17:59N 47°35' W 003°02'0 0.0
2017-Aug-17 17:29N 47°35' W 003°02'  
Track history (hours):
 
Tides and Currents Weather Stations Pressure Air Temp Water Temp Dewpoint Dewpoint Depression Visibility Wind Speed Wind Dir Waves Ship Positions

Laudanum

Last reported at 2017-Aug-27 17:15 UTC. Time now 2017-Sep-22 17:21 UTC.
Position N 47°35' W 003°02'.
Warning: this ship's position is 26 days out of date.

Type: Sailing vessel. MMSI: 227360690.

Date/timePositionNaut miles runAvg speedWind from/ knotsBaromVisibWave heightAir tempDewpointWater temp
2017-Aug-27 17:15N 47°35' W 003°02'0 0.0
2017-Aug-27 17:00N 47°35' W 003°02'0 0.0
2017-Aug-27 16:30N 47°35' W 003°02'1 2.2
2017-Aug-27 16:00N 47°34' W 003°01'3 6.5
2017-Aug-27 15:30N 47°32' W 002°59'3 6.9
2017-Aug-27 15:00N 47°28' W 002°57'3 6.8
2017-Aug-27 14:30N 47°25' W 002°55'3 6.8
2017-Aug-27 14:00N 47°22' W 002°53'1 2.2
2017-Aug-27 13:25N 47°21' W 002°53'0 0.0
2017-Aug-27 12:58N 47°21' W 002°53'0 0.0
2017-Aug-27 12:25N 47°21' W 002°53'0 0.0
2017-Aug-27 11:58N 47°21' W 002°53'0 0.0
2017-Aug-27 11:28N 47°21' W 002°53'0 0.0
2017-Aug-27 10:58N 47°21' W 002°53'1 2.5
2017-Aug-27 10:30N 47°21' W 002°54'2 3.2
2017-Aug-27 09:58N 47°22' W 002°57'2 0.1
2017-Aug-26 18:45N 47°23' W 002°59'0 0.0
2017-Aug-26 18:21N 47°23' W 002°59'0 0.0
2017-Aug-26 18:00N 47°23' W 002°59'1 0.2
2017-Aug-26 14:54N 47°23' W 003°00'5 5.4
2017-Aug-26 14:00N 47°28' W 003°00'3 5.9
2017-Aug-26 13:30N 47°31' W 003°01'3 6.3
2017-Aug-26 13:00N 47°34' W 003°01'1 2.6
2017-Aug-26 12:30N 47°35' W 003°02'0 0.0
2017-Aug-26 11:57N 47°35' W 003°02'0 0.0
2017-Aug-26 11:30N 47°35' W 003°02'0 0.0
2017-Aug-26 11:00N 47°35' W 003°02'0 0.0
2017-Aug-26 10:31N 47°35' W 003°02'0 0.0
2017-Aug-26 10:00N 47°35' W 003°02'0 0.0
2017-Aug-26 09:30N 47°35' W 003°02'0 0.0
2017-Aug-26 09:00N 47°35' W 003°02'0 0.0
2017-Aug-26 08:30N 47°35' W 003°02'0 0.0
2017-Aug-26 08:00N 47°35' W 003°02'0 0.0
2017-Aug-26 07:30N 47°35' W 003°02'0 0.0
2017-Aug-26 07:00N 47°35' W 003°02'0 0.0
2017-Aug-26 06:30N 47°35' W 003°02'0 0.0
2017-Aug-26 06:00N 47°35' W 003°02'0 0.0
2017-Aug-26 05:30N 47°35' W 003°02'0 0.0
2017-Aug-26 05:00N 47°35' W 003°02'0 0.0
2017-Aug-26 04:30N 47°35' W 003°02'0 0.0
2017-Aug-26 04:00N 47°35' W 003°02'0 0.0
2017-Aug-26 03:30N 47°35' W 003°02'0 0.0
2017-Aug-26 03:00N 47°35' W 003°02'0 0.0
2017-Aug-26 02:30N 47°35' W 003°02'0 0.0
2017-Aug-26 02:00N 47°35' W 003°02'0 0.0
2017-Aug-26 01:30N 47°35' W 003°02'0 0.0
2017-Aug-26 01:00N 47°35' W 003°02'0 0.0
2017-Aug-26 00:30N 47°35' W 003°02'0 0.0
2017-Aug-26 00:00N 47°35' W 003°02'0 0.0
2017-Aug-25 23:30N 47°35' W 003°02'0 0.0
2017-Aug-25 23:00N 47°35' W 003°02'0 0.0
2017-Aug-25 22:30N 47°35' W 003°02'0 0.0
2017-Aug-25 22:00N 47°35' W 003°02'0 0.0
2017-Aug-25 21:30N 47°35' W 003°02'0 0.0
2017-Aug-25 21:00N 47°35' W 003°02'  
2017-Aug-18 15:20N 47°35' W 003°02'0 0.0
2017-Aug-18 14:59N 47°35' W 003°02'0 0.0
2017-Aug-18 13:56N 47°35' W 003°02'0 0.0
2017-Aug-18 13:29N 47°35' W 003°02'0 0.0
2017-Aug-18 12:53N 47°35' W 003°02'0 0.0
2017-Aug-18 12:29N 47°35' W 003°02'0 0.0
2017-Aug-18 11:59N 47°35' W 003°02'0 0.0
2017-Aug-18 11:29N 47°35' W 003°02'0 0.0
2017-Aug-18 10:56N 47°35' W 003°02'0 0.0
2017-Aug-18 10:29N 47°35' W 003°02'0 0.0
2017-Aug-18 09:56N 47°35' W 003°02'0 0.0
2017-Aug-18 09:29N 47°35' W 003°02'0 0.0
2017-Aug-18 08:56N 47°35' W 003°02'0 0.0
2017-Aug-18 08:26N 47°35' W 003°02'0 0.0
2017-Aug-18 07:59N 47°35' W 003°02'0 0.0
2017-Aug-18 07:23N 47°35' W 003°02'0 0.0
2017-Aug-18 06:59N 47°35' W 003°02'0 0.0
2017-Aug-18 06:29N 47°35' W 003°02'0 0.0
2017-Aug-18 05:59N 47°35' W 003°02'0 0.0
2017-Aug-18 05:29N 47°35' W 003°02'0 0.0
2017-Aug-18 04:59N 47°35' W 003°02'0 0.0
2017-Aug-18 04:29N 47°35' W 003°02'0 0.0
2017-Aug-18 03:59N 47°35' W 003°02'0 0.0
2017-Aug-18 03:29N 47°35' W 003°02'0 0.0
2017-Aug-18 02:59N 47°35' W 003°02'0 0.0
2017-Aug-18 02:29N 47°35' W 003°02'0 0.0
2017-Aug-18 01:59N 47°35' W 003°02'0 0.0
2017-Aug-18 01:29N 47°35' W 003°02'0 0.0
2017-Aug-18 00:59N 47°35' W 003°02'0 0.0
2017-Aug-18 00:29N 47°35' W 003°02'0 0.0
2017-Aug-17 23:59N 47°35' W 003°02'0 0.0
2017-Aug-17 23:29N 47°35' W 003°02'0 0.0
2017-Aug-17 22:59N 47°35' W 003°02'0 0.0
2017-Aug-17 22:29N 47°35' W 003°02'0 0.0
2017-Aug-17 21:56N 47°35' W 003°02'0 0.0
2017-Aug-17 21:29N 47°35' W 003°02'0 0.0
2017-Aug-17 20:59N 47°35' W 003°02'0 0.0
2017-Aug-17 20:29N 47°35' W 003°02'0 0.0
2017-Aug-17 19:59N 47°35' W 003°02'0 0.0
2017-Aug-17 19:29N 47°35' W 003°02'0 0.0
2017-Aug-17 18:59N 47°35' W 003°02'0 0.0
2017-Aug-17 18:29N 47°35' W 003°02'0 0.0
2017-Aug-17 17:59N 47°35' W 003°02'0 0.0
2017-Aug-17 17:29N 47°35' W 003°02'  

Dump ship's entire track history